Latest Weather Observations for Eildon Fire Tower

IDV60801

Issued at 11:02 pm EST Tuesday 28 July 2015 (issued every 30 minutes, with the page automatically refreshed every 10 minutes)

About weather observations | Map of weather stations | Latest weather observations for VIC | Other Formats
Station Details ID: 088164 Name: EILDON FIRE TOWER Lat: -37.21 Lon: 145.84 Height: 637.0 m
Data from the previous 72 hours. | See also: Recent months at Eildon Fire Tower
Date/Time
EST
Temp
°C
App
Temp
°C
Dew
Point
Rel
Hum
%
Delta-T
°C
Wind Press
QNH
hPa
Press
MSL
hPa
Rain
since 9 am
mm
Dir
 
Spd
km/h
Gust
km/h
Spd
kts
Gust
kts
28/11:00pm 6.2 3.7 4.7 90 0.7 WSW 7 9 4 5 - - 0.2
28/10:30pm 6.5 4.0 4.5 87 0.9 W 7 9 4 5 - - 0.2
28/10:00pm 6.5 4.5 4.3 86 1.0 WSW 4 6 2 3 - - 0.2
28/09:30pm 6.4 4.0 4.4 87 0.9 WSW 6 6 3 3 - - 0.2
28/09:00pm 6.5 4.1 4.2 85 1.0 WSW 6 7 3 4 - - 0.2
28/08:30pm 6.5 4.0 4.7 88 0.8 SW 7 11 4 6 - - 0.2
28/08:00pm 6.6 4.3 4.8 88 0.8 WSW 6 7 3 4 - - 0.2
28/07:30pm 6.8 4.3 4.6 86 1.0 WSW 7 9 4 5 - - 0.2
28/07:00pm 6.9 3.6 4.6 85 1.0 WSW 11 15 6 8 - - 0.2
28/06:30pm 6.8 3.9 4.8 87 0.9 W 9 9 5 5 - - 0.2
28/06:00pm 6.8 3.9 4.6 86 1.0 WSW 9 9 5 5 - - 0.2
28/05:30pm 6.7 4.3 4.2 84 1.1 WSW 6 6 3 3 - - 0.2
28/05:00pm 6.6 4.3 4.6 87 0.9 SW 6 7 3 4 - - 0.2
28/04:30pm 7.0 4.5 4.8 86 1.0 SW 7 9 4 5 - - 0.2
28/04:00pm 7.2 3.6 5.2 87 0.9 SW 13 17 7 9 - - 0.2
28/03:30pm 8.2 4.5 4.6 78 1.6 WSW 13 17 7 9 - - 0.2
28/03:00pm 8.3 5.6 5.4 82 1.4 W 9 13 5 7 - - 0.0
28/02:30pm 8.5 6.1 5.3 80 1.5 WSW 7 13 4 7 - - 0.0
28/02:00pm 8.7 6.1 6.2 84 1.2 WSW 9 13 5 7 - - 0.0
28/01:30pm 7.9 4.9 6.2 89 0.8 WSW 11 17 6 9 - - 0.0
28/01:00pm 7.2 4.8 6.8 97 0.2 SW 9 20 5 11 - - 0.0
28/12:30pm 6.8 3.9 6.7 99 0.0 WSW 11 17 6 9 - - 0.0
28/12:00pm 6.8 3.6 6.7 99 0.0 WSW 13 20 7 11 - - 0.0
28/11:30am 6.8 3.6 6.7 99 0.0 WSW 13 22 7 12 - - 0.0
28/11:00am 5.9 2.5 5.8 99 0.0 W 13 19 7 10 - - 0.0
28/10:30am 5.9 3.6 5.8 99 0.0 W 7 11 4 6 - - 0.0
28/10:00am 5.5 2.4 5.4 99 0.0 W 11 13 6 7 - - 0.0
28/09:30am 5.4 2.6 5.3 99 0.0 WSW 9 13 5 7 - - 0.0
28/09:00am 5.0 1.8 4.9 99 0.0 W 11 13 6 7 - - 3.2
28/08:30am 4.8 1.9 4.7 99 0.0 W 9 13 5 7 - - 3.0
28/08:00am 4.5 1.6 4.4 99 0.0 W 9 13 5 7 - - 3.0
28/07:30am 4.3 0.6 4.2 99 0.0 WSW 13 17 7 9 - - 3.0
28/07:00am 4.2 0.1 4.1 99 0.0 W 15 17 8 9 - - 3.0
28/06:30am 4.2 0.8 4.1 99 0.0 W 11 17 6 9 - - 3.0
28/06:00am 4.1 0.3 4.0 99 0.0 W 13 17 7 9 - - 2.8
28/05:30am 4.1 -0.1 4.0 99 0.0 W 15 19 8 10 - - 2.8
28/05:00am 4.0 -0.6 3.9 99 0.0 W 17 20 9 11 - - 2.6
28/04:30am 4.1 -0.1 3.8 98 0.1 W 15 19 8 10 - - 2.4
28/04:00am 4.1 0.3 3.8 98 0.1 W 13 17 7 9 - - 2.2
28/03:30am 4.0 0.2 3.7 98 0.1 W 13 19 7 10 - - 2.0
28/03:00am 4.0 0.5 3.7 98 0.1 W 11 15 6 8 - - 1.8
28/02:30am 4.0 0.9 3.7 98 0.1 W 9 15 5 8 - - 1.6
28/02:00am 4.2 0.8 3.9 98 0.1 W 11 13 6 7 - - 1.6
28/01:30am 4.1 1.0 3.8 98 0.1 W 9 13 5 7 - - 1.4
28/01:00am 4.0 0.2 3.7 98 0.1 W 13 17 7 9 - - 1.4
28/12:30am 3.9 -0.3 3.6 98 0.1 W 15 19 8 10 - - 1.2
28/12:00am 4.0 -0.2 3.7 98 0.1 W 15 19 8 10 - - 1.2
 
Date/Time
EST
Temp
°C
App
Temp
°C
Dew
Point
Rel
Hum
%
Delta-T
°C
Wind Press
QNH
hPa
Press
MSL
hPa
Rain
since 9 am
mm
Dir
 
Spd
km/h
Gust
km/h
Spd
kts
Gust
kts
27/11:30pm 4.0 -0.6 3.6 97 0.2 W 17 22 9 12 - - 1.0
27/11:00pm 4.3 -0.6 3.9 97 0.2 WSW 19 24 10 13 - - 0.8
27/10:30pm 4.4 -1.1 3.8 96 0.3 WSW 22 30 12 16 - - 0.6
27/10:00pm 4.6 -1.7 3.7 94 0.4 W 26 33 14 18 - - 0.6
27/09:30pm 4.7 -1.2 4.0 95 0.3 WSW 24 30 13 16 - - 0.6
27/09:00pm 4.7 -0.5 3.7 93 0.4 WSW 20 26 11 14 - - 0.6
27/08:30pm 4.8 -0.4 3.6 92 0.5 WSW 20 30 11 16 - - 0.6
27/08:00pm 4.8 -0.8 3.6 92 0.5 WSW 22 32 12 17 - - 0.6
27/07:30pm 4.5 -1.0 3.8 95 0.3 WSW 22 28 12 15 - - 0.6
27/07:00pm 4.9 0.0 4.3 96 0.3 WSW 19 33 10 18 - - 0.6
27/06:30pm 4.6 0.8 4.0 96 0.3 WSW 13 20 7 11 - - 0.4
27/06:00pm 4.9 -0.2 4.0 94 0.4 WSW 20 26 11 14 - - 0.4
27/05:30pm 5.1 1.0 4.1 93 0.4 WSW 15 20 8 11 - - 0.4
27/05:00pm 4.9 1.2 4.2 95 0.3 WSW 13 17 7 9 - - 0.4
27/04:30pm 4.8 1.4 4.2 96 0.3 WSW 11 15 6 8 - - 0.4
27/04:00pm 4.9 0.8 4.2 95 0.3 W 15 20 8 11 - - 0.4
27/03:30pm 5.2 0.7 4.2 93 0.4 WSW 17 22 9 12 - - 0.4
27/03:00pm 6.4 1.8 5.4 93 0.5 WSW 19 32 10 17 - - 0.2
27/02:30pm 6.0 1.1 5.0 93 0.5 WSW 20 26 11 14 - - 0.2
27/02:00pm 4.9 1.1 3.9 93 0.4 W 13 24 7 13 - - 0.2
27/01:30pm 4.8 1.3 3.5 91 0.6 WSW 11 17 6 9 - - 0.0
27/01:00pm 4.8 0.9 3.6 92 0.5 WSW 13 19 7 10 - - 0.0
27/12:30pm 4.2 -0.5 3.2 93 0.4 WSW 17 24 9 13 - - 0.0
27/12:00pm 4.3 -0.5 2.8 90 0.6 WSW 17 30 9 16 - - 0.0
27/11:30am 3.7 -0.7 2.7 93 0.4 WSW 15 20 8 11 - - 0.0
27/11:00am 3.5 -1.0 2.3 92 0.5 W 15 22 8 12 - - 0.0
27/10:30am 2.8 -2.1 1.9 94 0.4 W 17 22 9 12 - - 0.0
27/10:00am 2.4 -2.2 1.4 93 0.4 W 15 20 8 11 - - 0.0
27/09:30am 2.2 -3.2 1.5 95 0.3 W 19 24 10 13 - - 0.0
27/09:00am 1.9 -3.7 1.0 94 0.4 W 20 26 11 14 - - 0.0
27/08:30am 1.8 -3.2 1.1 95 0.3 W 17 20 9 11 - - 0.0
27/08:00am 1.7 -4.7 0.7 93 0.4 W 24 28 13 15 - - 0.0
27/07:30am 1.7 -4.0 0.4 91 0.5 W 20 32 11 17 - - 0.0
27/07:00am 1.7 -4.4 0.2 90 0.6 W 22 28 12 15 - - 0.0
27/06:30am 1.6 -4.9 0.1 90 0.6 W 24 32 13 17 - - 0.0
27/06:00am 1.4 -4.2 0.1 91 0.5 W 19 26 10 14 - - 0.0
27/05:30am 1.4 -4.7 0.1 91 0.5 W 22 28 12 15 - - 0.0
27/05:00am 1.5 -4.3 0.2 91 0.5 W 20 26 11 14 - - 0.0
27/04:30am 1.6 -5.3 0.1 90 0.6 W 26 33 14 18 - - 0.0
27/04:00am 1.7 -5.2 0.2 90 0.6 W 26 35 14 19 - - 0.0
27/03:30am 1.9 -5.7 0.4 90 0.6 W 30 37 16 20 - - 0.0
27/03:00am 1.8 -5.0 0.5 91 0.5 W 26 33 14 18 - - 0.0
27/02:30am 1.9 -5.0 0.4 90 0.6 W 26 32 14 17 - - 0.0
27/02:00am 1.9 -4.6 0.6 91 0.5 W 24 30 13 16 - - 0.0
27/01:30am 1.8 -6.2 0.5 91 0.5 W 32 41 17 22 - - 0.0
27/01:00am 1.9 -6.3 0.1 88 0.7 W 33 46 18 25 - - 0.0
27/12:30am 2.4 -4.6 -0.2 83 1.0 W 26 33 14 18 - - 0.0
27/12:00am 2.4 -4.6 -0.2 83 1.0 W 26 32 14 17 - - 0.0
 
Date/Time
EST
Temp
°C
App
Temp
°C
Dew
Point
Rel
Hum
%
Delta-T
°C
Wind Press
QNH
hPa
Press
MSL
hPa
Rain
since 9 am
mm
Dir
 
Spd
km/h
Gust
km/h
Spd
kts
Gust
kts
26/11:30pm 2.5 -4.1 -0.6 80 1.2 W 24 30 13 16 - - 0.0
26/11:00pm 2.5 -4.5 -0.8 79 1.2 W 26 33 14 18 - - 0.0
26/10:30pm 2.6 -4.1 -0.8 78 1.3 W 24 30 13 16 - - 0.0
26/10:00pm 2.7 -5.1 -1.1 76 1.4 W 30 41 16 22 - - 0.0
26/09:30pm 2.9 -5.3 -0.9 76 1.4 W 32 39 17 21 - - 0.0
26/09:00pm 2.9 -6.2 -0.9 76 1.4 W 37 43 20 23 - - 0.0
26/08:30pm 3.1 -5.1 -0.7 76 1.5 W 32 37 17 20 - - 0.0
26/08:00pm 3.4 -5.3 -0.8 74 1.6 WSW 35 50 19 27 - - 0.0
26/07:30pm 3.1 -3.5 -0.7 76 1.5 WSW 24 35 13 19 - - 0.0
26/07:00pm 3.6 -4.5 -0.6 74 1.6 W 32 43 17 23 - - 0.0
26/06:30pm 3.4 -2.9 -0.8 74 1.6 W 22 41 12 22 - - 0.0
26/06:00pm 3.2 -1.4 -0.8 75 1.5 W 13 20 7 11 - - 0.0
26/05:30pm 3.4 -3.3 -0.8 74 1.6 W 24 32 13 17 - - 0.0
26/05:00pm 4.0 -4.4 -1.0 70 1.9 W 33 43 18 23 - - 0.0
26/04:30pm 4.3 -4.8 -0.9 69 2.0 WSW 37 52 20 28 - - 0.0
26/04:07pm 3.7 -6.2 -1.1 71 1.8 WSW 41 61 22 33 - - 0.0
26/04:00pm 3.7 -8.0 -1.3 70 1.9 W 50 63 27 34 - - 0.0
26/03:37pm 4.9 -4.8 -2.4 59 2.7 W 39 61 21 33 - - 0.0
26/03:30pm 5.0 -3.0 -2.1 60 2.7 W 30 48 16 26 - - 0.0
26/03:00pm 5.0 -3.0 0.6 73 1.8 W 32 44 17 24 - - 0.0
26/02:30pm 4.0 -3.4 1.7 85 0.9 W 30 44 16 24 - - 0.0
26/02:04pm 1.9 -8.4 0.4 90 0.6 W 44 65 24 35 - - 0.0
26/02:00pm 2.7 -8.0 0.3 84 0.9 W 46 65 25 35 - - 0.0
26/01:46pm 5.4 -2.1 -1.1 63 2.5 WNW 28 50 15 27 - - 0.0
26/01:30pm 6.1 0.0 0.2 66 2.4 W 22 48 12 26 - - 0.0
26/01:00pm 4.8 -3.3 -0.6 68 2.1 W 32 50 17 27 - - 0.0
26/12:33pm 4.8 -3.3 -0.6 68 2.1 W 32 52 17 28 - - 0.0
26/12:30pm 5.1 -2.9 0.5 72 1.9 W 32 44 17 24 - - 0.0
26/12:13pm 4.2 -4.1 -0.2 73 1.7 W 33 54 18 29 - - 0.0
26/12:00pm 5.4 -3.6 0.2 69 2.1 W 37 52 20 28 - - 0.0
26/11:39am 5.4 -2.9 0.0 68 2.2 W 33 54 18 29 - - 0.0
26/11:30am 5.1 -2.6 -0.1 69 2.1 W 30 48 16 26 - - 0.0
26/11:12am 4.7 -3.4 -0.1 71 1.9 W 32 50 17 27 - - 0.0
26/11:00am 5.4 -1.4 1.0 73 1.8 W 26 41 14 22 - - 0.0
26/10:30am 4.6 -3.4 0.4 74 1.7 W 32 46 17 25 - - 0.0
26/10:00am 4.5 -3.7 0.3 74 1.7 W 33 50 18 27 - - 0.0
26/09:44am 4.5 -3.1 0.3 74 1.7 W 30 52 16 28 - - 0.0
26/09:30am 4.4 -2.8 0.9 78 1.4 W 28 44 15 24 - - 0.0
26/09:00am 4.3 -2.9 0.8 78 1.4 WNW 28 41 15 22 - - 1.6
26/08:36am 4.6 -2.5 1.5 80 1.3 WNW 28 48 15 26 - - 1.6
26/08:30am 4.6 -2.5 1.6 81 1.2 W 28 41 15 22 - - 1.6
26/08:10am 4.7 -3.1 1.4 79 1.4 WNW 32 52 17 28 - - 1.6
26/08:00am 4.7 -2.7 1.7 81 1.2 WNW 30 43 16 23 - - 1.6
26/07:34am 5.0 -2.0 2.2 82 1.2 WNW 28 48 15 26 - - 1.6
26/07:30am 5.1 -1.5 2.3 82 1.2 WNW 26 48 14 26 - - 1.6
26/07:00am 5.3 -1.1 3.2 86 0.9 WNW 26 37 14 20 - - 1.6
26/06:30am 5.5 -1.2 3.5 87 0.9 WNW 28 46 15 25 - - 1.6
26/06:00am 5.7 0.2 3.9 88 0.8 WNW 22 33 12 18 - - 1.6
26/05:30am 5.8 0.7 4.0 88 0.8 NW 20 37 11 20 - - 1.4
26/05:00am 5.6 0.7 5.0 96 0.3 NW 20 37 11 20 - - 1.4
26/04:37am 5.8 -0.6 5.2 96 0.3 NW 28 48 15 26 - - 1.4
26/04:30am 5.8 -0.2 5.4 97 0.2 NW 26 43 14 23 - - 1.2
26/04:00am 5.7 -1.4 5.3 97 0.2 NW 32 59 17 32 - - 1.2
26/03:30am 5.8 -1.6 5.1 95 0.3 NW 33 61 18 33 - - 1.2
26/03:00am 6.0 -1.3 5.3 95 0.3 NNW 33 56 18 30 - - 1.2
26/02:30am 6.1 -1.6 5.4 95 0.3 NNW 35 57 19 31 - - 1.0
26/02:00am 6.5 -2.5 4.8 89 0.8 NNW 41 69 22 37 - - 0.8
26/01:30am 6.7 -1.5 4.7 87 0.9 N 37 57 20 31 - - 0.8
26/01:00am 6.1 -0.4 4.7 91 0.6 N 28 46 15 25 - - 0.8
26/12:30am 6.4 -0.1 4.6 88 0.8 N 28 48 15 26 - - 0.4
26/12:06am 6.2 -0.7 4.7 90 0.7 N 30 54 16 29 - - 0.4
26/12:00am 6.1 0.0 4.6 90 0.7 N 26 44 14 24 - - 0.2
 
Date/Time
EST
Temp
°C
App
Temp
°C
Dew
Point
Rel
Hum
%
Delta-T
°C
Wind Press
QNH
hPa
Press
MSL
hPa
Rain
since 9 am
mm
Dir
 
Spd
km/h
Gust
km/h
Spd
kts
Gust
kts
25/11:30pm 6.5 0.3 4.5 87 0.9 N 26 41 14 22 - - 0.2

Other Formats:

Comma delimited format used in spreadsheet applications
http://www.bom.gov.au/fwo/IDV60801/IDV60801.94881.axf

JavaScript Object Notation format (JSON) in row-major order
http://www.bom.gov.au/fwo/IDV60801/IDV60801.94881.json